Frankford, Minnesota
Current Conditions -  °F | °C
As of 9:54 PM on Sunday 23 Nov 2014 (Local Time) from KRST Reporting Station
Light Rain Light Rain  
Wind Chill: 27°   Ceiling: 500
Heat Index: 37°   Visibility: 6mi
Dew Point: 35°   Wind: 20mph
Humidity: 93%   Direction: 320°NW
Pressure: 29.3"   Gusts: NA
Location:  43.7143°N, 92.5748°W
Report Text: KRST 240354Z 32017KT 6SM -RA BR OVC005 03/02 A2930 RMK AO2 SLP927 P0001 T00280017
Loading
Personal Weather Stations






























Interactive Weather Map New forecast layout! Learn more

10-Day Weather Forecast

Advertisements
Track Severe Weather on mobile